createdAt,value
2018-02-25T00:00:29.792Z,9.27
2018-02-25T00:02:57.310Z,5.40
2018-02-25T00:05:24.910Z,10.20
2018-02-25T00:07:52.483Z,6.35
2018-02-25T00:10:20.043Z,6.75
2018-02-25T00:12:47.614Z,6.97
2018-02-25T00:15:15.134Z,6.70
2018-02-25T00:17:43.449Z,11.68
2018-02-25T00:20:11.018Z,5.80
2018-02-25T00:22:38.538Z,7.07
2018-02-25T00:25:06.810Z,4.05
2018-02-25T00:27:35.124Z,5.97
2018-02-25T00:30:02.641Z,5.50
2018-02-25T00:32:30.156Z,4.05
2018-02-25T00:34:57.704Z,4.18
2018-02-25T00:37:25.207Z,4.45
2018-02-25T00:39:52.826Z,4.70
2018-02-25T00:42:20.328Z,4.60
2018-02-25T00:44:47.930Z,3.90
2018-02-25T00:47:15.521Z,4.80
2018-02-25T00:49:43.004Z,4.20
2018-02-25T00:52:10.508Z,4.18
2018-02-25T00:54:38.024Z,4.32
2018-02-25T00:57:05.534Z,4.15
2018-02-25T00:59:33.089Z,4.28
2018-02-25T01:02:00.612Z,3.75
2018-02-25T01:04:28.217Z,4.05
2018-02-25T01:06:55.724Z,4.47
2018-02-25T01:09:23.242Z,4.07
2018-02-25T01:11:50.748Z,4.35
2018-02-25T01:14:18.343Z,4.12
2018-02-25T01:16:45.904Z,3.87
2018-02-25T01:19:13.483Z,3.40
2018-02-25T01:21:41.045Z,3.28
2018-02-25T01:24:08.638Z,3.83
2018-02-25T01:26:37.131Z,3.62
2018-02-25T01:29:04.728Z,3.60
2018-02-25T01:31:33.022Z,4.30
2018-02-25T01:34:00.538Z,3.85
2018-02-25T01:36:28.051Z,4.00
2018-02-25T01:38:55.560Z,4.28
2018-02-25T01:41:23.159Z,3.60
2018-02-25T01:43:50.667Z,3.92
2018-02-25T01:46:18.993Z,3.45
2018-02-25T01:48:46.499Z,4.65
2018-02-25T01:51:14.004Z,4.12
2018-02-25T01:53:41.578Z,3.50
2018-02-25T01:56:09.113Z,4.03
2018-02-25T01:58:37.384Z,4.60
2018-02-25T02:01:05.660Z,4.15
2018-02-25T02:03:33.935Z,4.70
2018-02-25T02:06:02.225Z,4.20
2018-02-25T02:08:30.510Z,4.15
2018-02-25T02:10:58.900Z,4.72
2018-02-25T02:13:26.403Z,4.75
2018-02-25T02:15:53.923Z,4.75
2018-02-25T02:18:21.429Z,4.85
2018-02-25T02:20:48.947Z,4.57
2018-02-25T02:23:16.446Z,4.68
2018-02-25T02:25:44.055Z,4.20
2018-02-25T02:28:11.614Z,3.85
2018-02-25T02:30:39.130Z,3.83
2018-02-25T02:33:06.631Z,5.03
2018-02-25T02:35:34.199Z,4.57
2018-02-25T02:38:01.710Z,4.57
2018-02-25T02:40:29.309Z,5.07
2018-02-25T02:42:57.585Z,4.00
2018-02-25T02:45:25.871Z,4.55
2018-02-25T02:47:53.421Z,5.43
2018-02-25T02:50:21.684Z,6.32
2018-02-25T02:52:49.968Z,4.93
2018-02-25T02:55:18.242Z,5.05
2018-02-25T02:57:46.531Z,5.00
2018-02-25T03:00:14.935Z,3.90
2018-02-25T03:02:42.451Z,4.62
2018-02-25T03:05:10.034Z,4.12
2018-02-25T03:07:37.557Z,5.25
2018-02-25T03:10:05.150Z,5.10
2018-02-25T03:12:33.551Z,4.30
2018-02-25T03:15:01.059Z,5.30
2018-02-25T03:17:28.648Z,4.60
2018-02-25T03:19:56.927Z,4.37
2018-02-25T03:22:25.331Z,4.57
2018-02-25T03:24:52.831Z,3.92
2018-02-25T03:27:20.342Z,3.87
2018-02-25T03:29:47.862Z,4.37
2018-02-25T03:32:15.457Z,4.97
2018-02-25T03:34:42.970Z,5.30
2018-02-25T03:37:10.487Z,5.60
2018-02-25T03:39:38.038Z,4.50
2018-02-25T03:42:05.543Z,4.90
2018-02-25T03:44:33.061Z,4.05
2018-02-25T03:47:00.610Z,5.28
2018-02-25T03:49:28.332Z,4.65
2018-02-25T03:51:55.874Z,4.80
2018-02-25T03:54:23.371Z,4.85
2018-02-25T03:56:50.953Z,4.65
2018-02-25T03:59:19.228Z,4.85
2018-02-25T04:01:46.791Z,6.53
2018-02-25T04:04:14.320Z,5.00
2018-02-25T04:06:41.824Z,4.87
2018-02-25T04:09:09.327Z,4.75
2018-02-25T04:11:36.925Z,4.62
2018-02-25T04:14:05.210Z,5.10
2018-02-25T04:16:32.719Z,5.10
2018-02-25T04:19:00.331Z,4.95
2018-02-25T04:21:27.836Z,4.30
2018-02-25T04:23:55.355Z,5.10
2018-02-25T04:26:22.867Z,5.53
2018-02-25T04:28:50.466Z,4.80
2018-02-25T04:31:18.735Z,5.95
2018-02-25T04:33:47.026Z,5.15
2018-02-25T04:36:14.589Z,5.50
2018-02-25T04:38:42.096Z,5.85
2018-02-25T04:41:09.734Z,5.15
2018-02-25T04:43:37.272Z,5.85
2018-02-25T04:46:04.783Z,5.37
2018-02-25T04:48:32.299Z,5.32
2018-02-25T04:50:59.818Z,5.12
2018-02-25T04:53:27.335Z,5.60
2018-02-25T04:55:54.846Z,5.20
2018-02-25T04:58:23.138Z,5.45
2018-02-25T05:00:51.416Z,4.70
2018-02-25T05:03:18.925Z,4.90
2018-02-25T05:05:46.443Z,4.00
2018-02-25T05:08:13.953Z,4.70
2018-02-25T05:10:41.479Z,5.35
2018-02-25T05:13:08.994Z,5.37
2018-02-25T05:15:37.263Z,5.68
2018-02-25T05:18:05.693Z,5.50
2018-02-25T05:20:33.207Z,6.77
2018-02-25T05:23:00.719Z,6.57
2018-02-25T05:25:28.223Z,5.90
2018-02-25T05:27:55.730Z,5.93
2018-02-25T05:30:23.243Z,5.32
2018-02-25T05:32:50.837Z,6.37
2018-02-25T05:35:18.352Z,5.95
2018-02-25T05:37:45.865Z,5.35
2018-02-25T05:40:13.429Z,5.60
2018-02-25T05:42:40.931Z,4.60
2018-02-25T05:45:08.532Z,5.35
2018-02-25T05:47:36.109Z,5.37
2018-02-25T05:50:03.620Z,4.45
2018-02-25T05:52:31.127Z,4.90
2018-02-25T05:54:58.660Z,5.35
2018-02-25T05:57:26.923Z,4.93
2018-02-25T05:59:55.223Z,4.87
2018-02-25T06:02:22.746Z,5.30
2018-02-25T06:04:50.343Z,4.78
2018-02-25T06:07:17.854Z,6.75
2018-02-25T06:09:45.462Z,5.30
2018-02-25T06:12:12.965Z,5.95
2018-02-25T06:14:40.487Z,6.03
2018-02-25T06:17:08.052Z,4.68
2018-02-25T06:19:35.567Z,6.90
2018-02-25T06:22:03.083Z,6.40
2018-02-25T06:24:30.587Z,5.87
2018-02-25T06:26:58.100Z,5.32
2018-02-25T06:29:25.620Z,6.07
2018-02-25T06:31:53.898Z,5.57
2018-02-25T06:34:22.214Z,5.85
2018-02-25T06:36:49.760Z,5.10
2018-02-25T06:39:17.261Z,4.90
2018-02-25T06:41:44.754Z,6.03
2018-02-25T06:44:13.042Z,6.20
2018-02-25T06:46:41.448Z,7.35
2018-02-25T06:49:08.995Z,6.32
2018-02-25T06:51:36.569Z,6.62
2018-02-25T06:54:04.122Z,6.40
2018-02-25T06:56:31.644Z,7.47
2018-02-25T06:58:59.253Z,6.50
2018-02-25T07:01:26.984Z,5.10
2018-02-25T07:03:55.260Z,5.25
2018-02-25T07:06:23.563Z,5.30
2018-02-25T07:08:51.226Z,6.85
2018-02-25T07:11:18.746Z,5.85
2018-02-25T07:13:46.255Z,5.68
2018-02-25T07:16:13.764Z,5.90
2018-02-25T07:18:41.352Z,5.75
2018-02-25T07:21:09.066Z,5.68
2018-02-25T07:23:36.609Z,5.45
2018-02-25T07:26:04.128Z,5.53
2018-02-25T07:28:32.395Z,5.55
2018-02-25T07:31:00.696Z,5.53
2018-02-25T07:33:28.260Z,5.12
2018-02-25T07:35:55.762Z,6.30
2018-02-25T07:38:23.578Z,5.15
2018-02-25T07:40:51.108Z,6.78
2018-02-25T07:43:18.712Z,6.15
2018-02-25T07:45:46.221Z,5.80
2018-02-25T07:48:13.743Z,6.00
2018-02-25T07:50:41.265Z,5.70
2018-02-25T07:53:09.667Z,5.87
2018-02-25T07:55:37.182Z,5.45
2018-02-25T07:58:04.772Z,4.93
2018-02-25T08:00:33.056Z,6.00
2018-02-25T08:03:01.572Z,7.37
2018-02-25T08:05:29.129Z,8.05
2018-02-25T08:07:56.661Z,7.60
2018-02-25T08:10:24.221Z,9.25
2018-02-25T08:12:51.804Z,14.68
2018-02-25T08:15:19.324Z,8.82
2018-02-25T08:17:47.634Z,6.45
2018-02-25T08:20:15.144Z,5.85
2018-02-25T08:22:42.651Z,11.02
2018-02-25T08:25:10.212Z,10.75
2018-02-25T08:27:37.761Z,6.47
2018-02-25T08:30:05.295Z,10.15
2018-02-25T08:32:33.570Z,7.80
2018-02-25T08:35:01.882Z,5.72
2018-02-25T08:37:29.412Z,9.60
2018-02-25T08:39:57.726Z,8.48
2018-02-25T08:42:25.390Z,6.00
2018-02-25T08:44:52.952Z,5.70
2018-02-25T08:47:20.475Z,4.87
2018-02-25T08:49:48.992Z,4.60
2018-02-25T08:52:17.679Z,5.10
2018-02-25T09:07:50.870Z,8.00
2018-02-25T09:10:18.596Z,4.50
2018-02-25T09:12:46.871Z,4.10
2018-02-25T09:15:15.490Z,4.93
2018-02-25T09:17:43.665Z,5.22
2018-02-25T09:20:11.328Z,4.83
2018-02-25T09:22:38.877Z,4.20
2018-02-25T09:25:06.390Z,5.00
2018-02-25T09:27:33.986Z,4.40
2018-02-25T09:30:01.571Z,4.07
2018-02-25T09:32:29.098Z,4.10
2018-02-25T09:34:57.508Z,4.23
2018-02-25T09:37:25.008Z,4.10
2018-02-25T09:39:52.602Z,4.30
2018-02-25T09:42:20.890Z,4.17
2018-02-25T09:44:48.427Z,5.10
2018-02-25T09:47:16.699Z,5.27
2018-02-25T09:49:44.228Z,4.50
2018-02-25T09:52:11.735Z,3.87
2018-02-25T09:54:40.032Z,4.40
2018-02-25T09:57:07.551Z,4.97
2018-02-25T09:59:35.046Z,4.75
2018-02-25T10:02:02.612Z,4.40
2018-02-25T10:04:30.169Z,9.70
2018-02-25T10:06:58.399Z,12.70
2018-02-25T10:09:25.936Z,6.97
2018-02-25T10:11:53.466Z,5.40
2018-02-25T10:14:21.083Z,4.00
2018-02-25T10:16:48.547Z,4.20
2018-02-25T10:19:16.141Z,4.00
2018-02-25T10:21:43.653Z,4.83
2018-02-25T10:24:11.883Z,4.83
2018-02-25T10:26:39.458Z,4.10
2018-02-25T10:29:06.991Z,4.32
2018-02-25T10:31:36.629Z,4.33
2018-02-25T10:34:04.173Z,4.40
2018-02-25T10:36:31.690Z,4.10
2018-02-25T10:38:59.397Z,4.23
2018-02-25T10:41:26.920Z,4.45
2018-02-25T10:43:54.562Z,5.15
2018-02-25T10:46:22.298Z,4.70
2018-02-25T10:48:49.814Z,4.33
2018-02-25T10:51:18.580Z,4.80
2018-02-25T10:53:46.310Z,4.10
2018-02-25T10:56:15.453Z,4.40
2018-02-25T10:58:43.680Z,4.37
2018-02-25T11:01:11.424Z,3.90
2018-02-25T11:03:39.317Z,4.27
2018-02-25T11:06:06.991Z,4.13
2018-02-25T11:08:34.787Z,4.73
2018-02-25T11:11:02.959Z,4.68
2018-02-25T11:13:31.444Z,4.60
2018-02-25T11:15:59.573Z,4.20
2018-02-25T11:18:27.337Z,3.60
2018-02-25T11:20:55.875Z,4.70
2018-02-25T11:23:23.375Z,3.90
2018-02-25T11:25:51.386Z,3.80
2018-02-25T11:28:19.101Z,3.47
2018-02-25T11:30:46.691Z,4.43
2018-02-25T11:33:14.648Z,3.90
2018-02-25T11:35:42.755Z,3.60
2018-02-25T11:38:16.133Z,3.67
2018-02-25T11:40:45.075Z,3.90
2018-02-25T11:43:13.083Z,3.27
2018-02-25T11:45:45.096Z,3.53
2018-02-25T11:48:19.060Z,3.77
2018-02-25T11:50:55.630Z,4.17
2018-02-25T11:53:26.904Z,3.90
2018-02-25T11:55:55.341Z,3.43
2018-02-25T11:58:23.069Z,3.70
2018-02-25T12:00:50.690Z,18.27
2018-02-25T12:03:19.702Z,3.90
2018-02-25T12:05:47.753Z,3.50
2018-02-25T12:08:16.095Z,4.60
2018-02-25T12:10:44.379Z,8.50
2018-02-25T12:13:11.904Z,3.50
2018-02-25T12:15:39.516Z,4.80
2018-02-25T12:18:07.060Z,11.60
2018-02-25T12:20:34.652Z,3.72
2018-02-25T12:23:02.901Z,6.78
2018-02-25T12:25:30.485Z,6.55
2018-02-25T12:27:58.153Z,14.30
2018-02-25T12:30:26.018Z,4.60
2018-02-25T12:32:53.528Z,6.35
2018-02-25T12:35:21.053Z,4.15
2018-02-25T12:37:48.555Z,4.90
2018-02-25T12:40:16.864Z,4.62
2018-02-25T12:42:44.447Z,4.40
2018-02-25T12:45:11.980Z,5.30
2018-02-25T12:47:39.563Z,5.10
2018-02-25T12:50:07.092Z,4.60
2018-02-25T12:52:35.378Z,4.40
2018-02-25T12:55:02.940Z,3.78
2018-02-25T12:57:30.507Z,3.95
2018-02-25T12:59:58.039Z,3.45
2018-02-25T13:02:26.346Z,3.50
2018-02-25T13:04:53.851Z,3.40
2018-02-25T13:07:21.715Z,4.10
2018-02-25T13:09:49.334Z,3.60
2018-02-25T13:12:16.888Z,3.47
2018-02-25T13:14:44.447Z,3.20
2018-02-25T13:17:11.954Z,4.10
2018-02-25T13:19:39.572Z,3.42
2018-02-25T13:22:07.145Z,3.92
2018-02-25T13:24:34.667Z,3.00
2018-02-25T13:27:02.944Z,3.53
2018-02-25T13:29:32.209Z,3.50
2018-02-25T13:31:59.759Z,3.10
2018-02-25T13:34:27.297Z,3.17
2018-02-25T13:36:54.845Z,4.15
2018-02-25T13:39:22.385Z,3.05
2018-02-25T13:41:50.685Z,3.40
2018-02-25T13:44:18.203Z,3.40
2018-02-25T13:46:45.723Z,3.90
2018-02-25T13:49:13.229Z,3.67
2018-02-25T13:51:41.515Z,3.40
2018-02-25T13:54:09.794Z,3.75
2018-02-25T13:56:38.110Z,3.70
2018-02-25T13:59:05.658Z,3.33
2018-02-25T14:01:33.217Z,2.87
2018-02-25T14:04:00.796Z,3.22
2018-02-25T14:06:28.349Z,3.55
2018-02-25T14:08:55.916Z,3.55
2018-02-25T14:11:23.440Z,3.33
2018-02-25T14:13:51.728Z,3.30
2018-02-25T14:16:20.515Z,4.07
2018-02-25T14:18:48.788Z,3.72
2018-02-25T14:21:17.105Z,3.60
2018-02-25T14:23:44.633Z,3.47
2018-02-25T14:26:12.151Z,3.42
2018-02-25T14:28:39.658Z,3.87
2018-02-25T14:31:07.162Z,3.50
2018-02-25T14:33:34.703Z,3.50
2018-02-25T14:36:02.229Z,3.80
2018-02-25T14:38:29.765Z,3.50
2018-02-25T14:40:57.277Z,3.00
2018-02-25T14:43:24.787Z,3.75
2018-02-25T14:45:52.386Z,3.45
2018-02-25T14:48:19.956Z,3.45
2018-02-25T14:50:47.522Z,3.80
2018-02-25T14:53:15.031Z,3.53
2018-02-25T14:55:43.561Z,3.50
2018-02-25T14:58:11.223Z,3.80
2018-02-25T15:00:38.774Z,3.60
2018-02-25T15:03:06.300Z,3.50
2018-02-25T15:05:33.835Z,4.03
2018-02-25T15:08:01.471Z,3.37
2018-02-25T15:10:29.447Z,3.10
2018-02-25T15:12:57.407Z,4.62
2018-02-25T15:15:24.978Z,3.40
2018-02-25T15:17:52.483Z,3.55
2018-02-25T15:20:20.783Z,3.90
2018-02-25T15:22:48.315Z,5.28
2018-02-25T15:25:15.846Z,3.95
2018-02-25T15:27:43.476Z,3.70
2018-02-25T15:30:11.050Z,3.80
2018-02-25T15:32:39.339Z,3.83
2018-02-25T15:35:06.927Z,4.35
2018-02-25T15:37:34.572Z,3.50
2018-02-25T15:40:02.092Z,3.50
2018-02-25T15:42:30.085Z,3.58
2018-02-25T15:45:00.181Z,3.90
2018-02-25T15:47:28.067Z,4.07
2018-02-25T15:49:56.209Z,3.90
2018-02-25T15:52:26.964Z,3.30
2018-02-25T15:54:56.653Z,3.35
2018-02-25T15:57:24.767Z,3.95
2018-02-25T15:59:53.655Z,3.10
2018-02-25T16:02:22.338Z,3.78
2018-02-25T16:04:50.849Z,4.05
2018-02-25T16:07:19.996Z,3.72
2018-02-25T16:09:47.725Z,3.83
2018-02-25T16:12:15.470Z,4.22
2018-02-25T16:14:43.595Z,3.62
2018-02-25T16:17:11.183Z,3.30
2018-02-25T16:19:38.720Z,3.80
2018-02-25T16:22:07.009Z,3.20
2018-02-25T16:24:34.539Z,3.60
2018-02-25T16:27:02.888Z,3.78
2018-02-25T16:29:30.440Z,3.90
2018-02-25T16:31:58.186Z,4.78
2018-02-25T16:34:26.566Z,5.15
2018-02-25T16:36:54.106Z,4.40
2018-02-25T16:39:21.676Z,3.92
2018-02-25T16:41:49.237Z,4.20
2018-02-25T16:44:16.828Z,4.40
2018-02-25T16:46:44.553Z,3.95
2018-02-25T16:49:12.139Z,4.35
2018-02-25T16:51:39.713Z,5.35
2018-02-25T16:54:07.272Z,5.18
2018-02-25T16:56:34.918Z,4.47
2018-02-25T16:59:02.785Z,4.55
2018-02-25T17:01:30.321Z,5.85
2018-02-25T17:03:58.238Z,4.72
2018-02-25T17:06:26.239Z,4.93
2018-02-25T17:08:54.154Z,5.07
2018-02-25T17:11:22.642Z,4.93
2018-02-25T17:13:51.425Z,5.10
2018-02-25T17:16:19.089Z,4.40
2018-02-25T17:18:46.648Z,5.10
2018-02-25T17:21:14.174Z,5.30
2018-02-25T17:23:42.452Z,5.10
2018-02-25T17:26:10.748Z,4.70
2018-02-25T17:28:38.352Z,5.78
2018-02-25T17:31:06.090Z,5.22
2018-02-25T17:33:33.641Z,5.40
2018-02-25T17:36:01.151Z,6.87
2018-02-25T17:38:29.142Z,5.62
2018-02-25T17:40:58.020Z,5.55
2018-02-25T17:43:25.689Z,5.87
2018-02-25T17:45:53.208Z,5.97
2018-02-25T17:48:20.841Z,5.97
2018-02-25T17:50:48.352Z,7.25
2018-02-25T17:53:15.978Z,6.53
2018-02-25T17:55:43.539Z,7.05
2018-02-25T17:58:13.462Z,7.40
2018-02-25T18:00:43.158Z,7.20
2018-02-25T18:03:13.064Z,8.60
2018-02-25T18:05:43.725Z,10.98
2018-02-25T18:08:14.253Z,10.13
2018-02-25T18:10:47.352Z,11.80
2018-02-25T18:13:16.259Z,11.32
2018-02-25T18:15:45.378Z,10.52
2018-02-25T18:18:15.428Z,11.40
2018-02-25T18:20:43.105Z,10.10
2018-02-25T18:23:10.763Z,8.52
2018-02-25T18:25:38.642Z,10.43
2018-02-25T18:28:06.200Z,8.35
2018-02-25T18:30:34.687Z,8.15
2018-02-25T18:33:02.337Z,9.20
2018-02-25T18:35:30.010Z,7.97
2018-02-25T18:37:58.010Z,9.30
2018-02-25T18:40:28.148Z,8.00
2018-02-25T18:42:56.405Z,6.50
2018-02-25T18:45:24.465Z,7.00
2018-02-25T18:47:53.508Z,8.35
2018-02-25T18:50:21.679Z,6.40
2018-02-25T18:52:50.517Z,6.68
2018-02-25T18:55:19.509Z,5.53
2018-02-25T18:57:47.988Z,6.03
2018-02-25T19:00:15.736Z,5.55
2018-02-25T19:02:44.092Z,5.15
2018-02-25T19:05:12.623Z,6.28
2018-02-25T19:07:40.998Z,5.80
2018-02-25T19:10:09.027Z,5.47
2018-02-25T19:12:37.137Z,5.62
2018-02-25T19:15:05.206Z,7.10
2018-02-25T19:17:32.934Z,6.03
2018-02-25T19:20:01.418Z,6.22
2018-02-25T19:22:30.051Z,5.65
2018-02-25T19:24:57.638Z,5.87
2018-02-25T19:27:25.692Z,6.60
2018-02-25T19:29:53.438Z,5.60
2018-02-25T19:32:21.735Z,6.05
2018-02-25T19:34:49.708Z,5.12
2018-02-25T19:37:23.170Z,5.55
2018-02-25T19:39:56.289Z,5.32
2018-02-25T19:42:23.985Z,5.50
2018-02-25T19:44:52.119Z,4.93
2018-02-25T19:47:20.212Z,5.12
2018-02-25T19:49:48.499Z,6.60
2018-02-25T19:52:16.236Z,5.75
2018-02-25T19:54:44.184Z,5.43
2018-02-25T19:57:12.800Z,6.53
2018-02-25T19:59:41.160Z,5.70
2018-02-25T20:02:09.276Z,5.97
2018-02-25T20:04:38.079Z,5.37
2018-02-25T20:07:06.154Z,5.05
2018-02-25T20:09:34.817Z,4.90
2018-02-25T20:12:02.556Z,5.70
2018-02-25T20:14:30.440Z,5.55
2018-02-25T20:16:59.220Z,5.60
2018-02-25T20:19:27.003Z,5.05
2018-02-25T20:21:55.053Z,5.35
2018-02-25T20:24:22.781Z,5.87
2018-02-25T20:26:51.162Z,6.10
2018-02-25T20:29:19.461Z,5.60
2018-02-25T20:31:47.137Z,5.45
2018-02-25T20:34:14.930Z,5.07
2018-02-25T20:36:42.601Z,5.78
2018-02-25T20:39:10.387Z,6.05
2018-02-25T20:41:38.862Z,6.18
2018-02-25T20:44:06.514Z,6.30
2018-02-25T20:46:34.721Z,5.47
2018-02-25T20:49:03.239Z,5.43
2018-02-25T20:51:30.890Z,5.18
2018-02-25T20:53:58.424Z,5.35
2018-02-25T20:56:26.019Z,5.57
2018-02-25T20:58:53.727Z,6.12
2018-02-25T21:01:21.372Z,5.85
2018-02-25T21:03:49.498Z,5.62
2018-02-25T21:06:17.386Z,6.90
2018-02-25T21:08:45.192Z,6.20
2018-02-25T21:11:12.796Z,6.12
2018-02-25T21:13:40.478Z,5.80
2018-02-25T21:16:08.238Z,5.95
2018-02-25T21:18:36.020Z,6.97
2018-02-25T21:21:03.691Z,6.60
2018-02-25T21:23:31.315Z,6.05
2018-02-25T21:25:58.904Z,6.30
2018-02-25T21:28:26.656Z,6.40
2018-02-25T21:30:54.316Z,7.60
2018-02-25T21:33:21.977Z,7.67
2018-02-25T21:35:49.523Z,6.53
2018-02-25T21:38:17.305Z,6.57
2018-02-25T21:40:44.938Z,6.60
2018-02-25T21:43:13.259Z,6.93
2018-02-25T21:45:40.780Z,5.82
2018-02-25T21:48:09.177Z,6.57
2018-02-25T21:50:36.802Z,6.95
2018-02-25T21:53:04.504Z,5.43
2018-02-25T21:55:33.278Z,6.70
2018-02-25T21:58:07.553Z,5.95
2018-02-25T22:00:41.083Z,7.68
2018-02-25T22:03:15.176Z,6.80
2018-02-25T22:05:42.757Z,6.87
2018-02-25T22:08:10.439Z,5.93
2018-02-25T22:10:37.965Z,5.35
2018-02-25T22:13:05.678Z,7.73
2018-02-25T22:15:33.389Z,7.62
2018-02-25T22:18:01.253Z,5.62
2018-02-25T22:20:30.596Z,6.22
2018-02-25T22:22:58.686Z,6.55
2018-02-25T22:25:26.353Z,5.90
2018-02-25T22:27:53.962Z,8.02
2018-02-25T22:30:21.894Z,8.10
2018-02-25T22:32:49.946Z,7.22
2018-02-25T22:35:18.006Z,7.03
2018-02-25T22:37:45.893Z,7.95
2018-02-25T22:40:13.569Z,8.10
2018-02-25T22:42:41.529Z,7.40
2018-02-25T22:45:09.496Z,6.82
2018-02-25T22:47:37.118Z,7.07
2018-02-25T22:50:05.918Z,6.65
2018-02-25T22:52:34.755Z,6.60
2018-02-25T22:55:02.357Z,5.97
2018-02-25T22:57:31.089Z,8.82
2018-02-25T22:59:58.700Z,6.72
2018-02-25T23:02:26.622Z,7.28
2018-02-25T23:04:54.163Z,7.93
2018-02-25T23:07:21.794Z,7.75
2018-02-25T23:09:50.117Z,8.07
2018-02-25T23:12:17.654Z,8.93
2018-02-25T23:14:45.964Z,9.07
2018-02-25T23:17:13.485Z,8.68
2018-02-25T23:19:41.775Z,8.23
2018-02-25T23:22:09.288Z,7.90
2018-02-25T23:24:36.844Z,9.27
2018-02-25T23:27:04.363Z,8.98
2018-02-25T23:29:32.344Z,7.43
2018-02-25T23:31:59.910Z,7.15
2018-02-25T23:34:27.438Z,7.07
2018-02-25T23:36:55.727Z,6.87
2018-02-25T23:39:24.113Z,7.07
2018-02-25T23:41:51.651Z,7.95
2018-02-25T23:44:19.228Z,6.18
2018-02-25T23:46:46.795Z,6.82
2018-02-25T23:49:14.433Z,6.95
2018-02-25T23:51:42.712Z,6.72
2018-02-25T23:54:11.130Z,7.50
2018-02-25T23:56:38.667Z,6.37
2018-02-25T23:59:06.235Z,7.27
